Hydra Viii — SVA6986 — position and weather

sailwx.info

Track history (hours):
 
Tides and Currents Weather Stations Pressure Air Temp Water Temp Dewpoint Dewpoint Depression Visibility Wind Speed Wind Dir Waves Ship Positions

Hydra Viii

Last reported at 2018-Jun-11 09:10 UTC. Time now 2018-Jun-24 18:37 UTC.
Position N 38°01' E 022°49'.
Warning: this ship's position is 13 days out of date.

Length 14 m.

Type: Pleasure craft. MMSI: 239951600.

Date/timePositionNaut miles runAvg speedWind from/ knotsBaromVisibWave heightAir tempDewpointWater temp
2018-Jun-11 09:10N 38°01' E 022°49'2 7.2
2018-Jun-11 08:55N 37°60' E 022°51'3 7.2
2018-Jun-11 08:30N 37°59' E 022°55'6 7.5
2018-Jun-11 07:45N 37°55' E 023°00'1 2.2
2018-Jun-11 07:30N 37°55' E 023°01'3 5.0
2018-Jun-11 07:00N 37°53' E 023°03'4 7.6
2018-Jun-11 06:30N 37°51' E 023°07'4 7.6
2018-Jun-11 06:00N 37°49' E 023°11'4 0.2
2018-Jun-10 08:03N 37°45' E 023°12'1 8.2
2018-Jun-10 07:59N 37°45' E 023°13'4 7.4
2018-Jun-10 07:30N 37°47' E 023°17'3 6.6
2018-Jun-10 07:00N 37°48' E 023°21'3 6.4
2018-Jun-10 06:30N 37°49' E 023°25'3 6.8
2018-Jun-10 06:00N 37°50' E 023°29'4 7.2
2018-Jun-10 05:30N 37°52' E 023°33'3 6.4
2018-Jun-10 05:00N 37°53' E 023°37'4 7.2
2018-Jun-10 04:30N 37°54' E 023°41'1 2.2
2018-Jun-10 03:58N 37°55' E 023°42'0 0.0
2018-Jun-10 03:28N 37°55' E 023°42'0 0.0
2018-Jun-10 02:58N 37°55' E 023°42'0 0.0
2018-Jun-10 02:28N 37°55' E 023°42'0 0.0
2018-Jun-10 01:58N 37°55' E 023°42'0 0.0
2018-Jun-10 01:28N 37°55' E 023°42'0 0.0
2018-Jun-10 00:58N 37°55' E 023°42'0 0.0
2018-Jun-10 00:29N 37°55' E 023°42'0 0.0
2018-Jun-09 23:58N 37°55' E 023°42'0 0.0
2018-Jun-09 23:28N 37°55' E 023°42'0 0.0
2018-Jun-09 22:59N 37°55' E 023°42'0 0.0
2018-Jun-09 22:28N 37°55' E 023°42'0 0.0
2018-Jun-09 21:58N 37°55' E 023°42'0 0.0
2018-Jun-09 21:28N 37°55' E 023°42'0 0.0
2018-Jun-09 20:59N 37°55' E 023°42'0 0.0
2018-Jun-09 20:28N 37°55' E 023°42'0 0.0
2018-Jun-09 19:59N 37°55' E 023°42'0 0.0
2018-Jun-09 19:29N 37°55' E 023°42'0 0.0
2018-Jun-09 18:58N 37°55' E 023°42'0 0.0
2018-Jun-09 18:28N 37°55' E 023°42'0 0.0
2018-Jun-09 17:59N 37°55' E 023°42'0 0.0
2018-Jun-09 17:28N 37°55' E 023°42'0 0.0
2018-Jun-09 16:55N 37°55' E 023°42'0 0.0
2018-Jun-09 16:28N 37°55' E 023°42'0 0.0
2018-Jun-09 15:58N 37°55' E 023°42'0 0.0
2018-Jun-09 15:29N 37°55' E 023°42'0 0.0
2018-Jun-09 14:28N 37°55' E 023°42'0 0.0
2018-Jun-09 13:59N 37°55' E 023°42'0 0.0
2018-Jun-09 13:28N 37°55' E 023°42'0 0.0
2018-Jun-09 12:58N 37°55' E 023°42'0 0.0
2018-Jun-09 12:28N 37°55' E 023°42'0 0.0
2018-Jun-09 11:58N 37°55' E 023°42'0 0.0
2018-Jun-09 11:28N 37°55' E 023°42'0 0.0
2018-Jun-09 10:58N 37°55' E 023°42'0 0.0
2018-Jun-09 10:28N 37°55' E 023°42'0 0.0
2018-Jun-09 09:59N 37°55' E 023°42'0 0.0
2018-Jun-09 09:28N 37°55' E 023°42'0 0.0
2018-Jun-09 08:58N 37°55' E 023°42'0 0.0
2018-Jun-09 08:28N 37°55' E 023°42'0 0.0
2018-Jun-09 07:58N 37°55' E 023°42'0 0.0
2018-Jun-09 07:28N 37°55' E 023°42'0 0.0
2018-Jun-09 06:58N 37°55' E 023°42'0 0.0
2018-Jun-09 06:28N 37°55' E 023°42'0 0.0
2018-Jun-09 05:58N 37°55' E 023°42'0 0.0
2018-Jun-09 05:29N 37°55' E 023°42'0 0.0
2018-Jun-09 04:59N 37°55' E 023°42'0 0.0
2018-Jun-09 04:29N 37°55' E 023°42'0 0.0
2018-Jun-09 03:58N 37°55' E 023°42'0 0.0
2018-Jun-09 03:28N 37°55' E 023°42'0 0.0
2018-Jun-09 02:58N 37°55' E 023°42'0 0.0
2018-Jun-09 02:28N 37°55' E 023°42'0 0.0
2018-Jun-09 01:59N 37°55' E 023°42'0 0.0
2018-Jun-09 01:29N 37°55' E 023°42'0 0.0
2018-Jun-09 00:58N 37°55' E 023°42'0 0.0
2018-Jun-09 00:28N 37°55' E 023°42'0 0.0
2018-Jun-08 23:58N 37°55' E 023°42'0 0.0
2018-Jun-08 23:28N 37°55' E 023°42'0 0.0
2018-Jun-08 22:59N 37°55' E 023°42'0 0.0
2018-Jun-08 22:28N 37°55' E 023°42'0 0.0
2018-Jun-08 21:58N 37°55' E 023°42'0 0.0
2018-Jun-08 21:29N 37°55' E 023°42'0 0.0
2018-Jun-08 20:59N 37°55' E 023°42'0 0.0
2018-Jun-08 20:28N 37°55' E 023°42'0 0.0
2018-Jun-08 19:58N 37°55' E 023°42'0 0.0
2018-Jun-08 19:28N 37°55' E 023°42'0 0.0
2018-Jun-08 18:58N 37°55' E 023°42'0 0.0
2018-Jun-08 18:28N 37°55' E 023°42'0 0.0
2018-Jun-08 17:59N 37°55' E 023°42'0 0.0
2018-Jun-08 17:29N 37°55' E 023°42'0 0.0
2018-Jun-08 16:58N 37°55' E 023°42'0 0.0
2018-Jun-08 16:29N 37°55' E 023°42'0 0.0
2018-Jun-08 15:58N 37°55' E 023°42'0 0.0
2018-Jun-08 15:29N 37°55' E 023°42'0 0.0
2018-Jun-08 14:58N 37°55' E 023°42'0 0.0
2018-Jun-08 14:26N 37°55' E 023°42'0 0.0
2018-Jun-08 13:59N 37°55' E 023°42'1 1.9
2018-Jun-08 13:30N 37°54' E 023°41'3 6.4
2018-Jun-08 13:00N 37°52' E 023°39'3 6.3
2018-Jun-08 12:31N 37°50' E 023°36'3 5.8
2018-Jun-08 12:01N 37°47' E 023°34'1 2.1
2018-Jun-08 11:30N 37°46' E 023°33'0 0.0
2018-Jun-08 11:00N 37°46' E 023°33'0 0.0
2018-Jun-08 10:30N 37°46' E 023°33'0 0.0
2018-Jun-08 10:00N 37°46' E 023°33'0 0.0
2018-Jun-08 09:30N 37°46' E 023°33'0 0.0
2018-Jun-08 09:00N 37°46' E 023°33'2 4.4
2018-Jun-08 08:29N 37°47' E 023°30'3 5.4
2018-Jun-08 08:00N 37°47' E 023°27'2 0.1
2018-Jun-07 17:09N 37°45' E 023°26'0 0.0
2018-Jun-07 17:00N 37°45' E 023°26'0 0.0
2018-Jun-07 16:30N 37°45' E 023°26'0 0.0
2018-Jun-07 16:00N 37°45' E 023°26'0 0.0
2018-Jun-07 15:30N 37°45' E 023°26'0 0.0
2018-Jun-07 14:51N 37°45' E 023°26'0 0.0
2018-Jun-07 14:30N 37°45' E 023°26'2 4.5
2018-Jun-07 14:00N 37°43' E 023°24'6 1.4
2018-Jun-07 10:03N 37°40' E 023°18'1 5.2
2018-Jun-07 09:54N 37°39' E 023°17'5 0.3
2018-Jun-06 14:22N 37°38' E 023°11'3 5.2
2018-Jun-06 13:53N 37°38' E 023°14'3 5.6
2018-Jun-06 13:24N 37°38' E 023°17'3 4.7
2018-Jun-06 12:49N 37°40' E 023°20'1 3.8
2018-Jun-06 12:26N 37°40' E 023°22'2 4.9
2018-Jun-06 11:59N 37°41' E 023°24'  
2018-Jun-03 07:50N 37°42' E 023°26'2 5.1
2018-Jun-03 07:30N 37°44' E 023°26'1 0.1
2018-Jun-02 18:06N 37°45' E 023°25'1 3.7
2018-Jun-02 17:54N 37°45' E 023°25'3 7.5
2018-Jun-02 17:30N 37°48' E 023°27'4 7.6
2018-Jun-02 17:00N 37°50' E 023°31'3 6.9
2018-Jun-02 16:30N 37°52' E 023°35'3 6.0
2018-Jun-02 16:00N 37°53' E 023°38'2 3.0
2018-Jun-02 15:30N 37°54' E 023°40'2 4.4
2018-Jun-02 15:00N 37°55' E 023°42'0 0.0
2018-Jun-02 14:30N 37°55' E 023°42'0 0.0
2018-Jun-02 14:00N 37°55' E 023°42'0 0.0
2018-Jun-02 13:30N 37°55' E 023°42'0 0.0
2018-Jun-02 13:00N 37°55' E 023°42'0 0.0
2018-Jun-02 12:30N 37°55' E 023°42'0 0.0
2018-Jun-02 12:00N 37°55' E 023°42'0 0.0
2018-Jun-02 11:30N 37°55' E 023°42'0 0.0
2018-Jun-02 11:00N 37°55' E 023°42'0 0.0
2018-Jun-02 10:30N 37°55' E 023°42'0 0.0
2018-Jun-02 10:00N 37°55' E 023°42'0 0.0
2018-Jun-02 09:30N 37°55' E 023°42'0 0.0
2018-Jun-02 09:00N 37°55' E 023°42'0 0.0
2018-Jun-02 08:30N 37°55' E 023°42'0 0.0
2018-Jun-02 08:00N 37°55' E 023°42'0 0.0
2018-Jun-02 07:30N 37°55' E 023°42'0 0.0
2018-Jun-02 07:00N 37°55' E 023°42'0 0.0
2018-Jun-02 06:30N 37°55' E 023°42'0 0.0
2018-Jun-02 06:00N 37°55' E 023°42'0 0.0
2018-Jun-02 05:30N 37°55' E 023°42'0 0.0
2018-Jun-02 05:00N 37°55' E 023°42'0 0.0
2018-Jun-02 04:27N 37°55' E 023°42'0 0.0
2018-Jun-02 04:00N 37°55' E 023°42'0 0.0
2018-Jun-02 03:30N 37°55' E 023°42'0 0.0
2018-Jun-02 03:00N 37°55' E 023°42'0 0.0
2018-Jun-02 02:30N 37°55' E 023°42'0 0.0
2018-Jun-02 02:00N 37°55' E 023°42'0 0.0
2018-Jun-02 01:30N 37°55' E 023°42'0 0.0
2018-Jun-02 01:00N 37°55' E 023°42'0 0.0
2018-Jun-02 00:30N 37°55' E 023°42'0 0.0
2018-Jun-02 00:00N 37°55' E 023°42'0 0.0
2018-Jun-01 23:30N 37°55' E 023°42'0 0.0
2018-Jun-01 23:00N 37°55' E 023°42'0 0.0
2018-Jun-01 22:30N 37°55' E 023°42'0 0.0
2018-Jun-01 22:00N 37°55' E 023°42'0 0.0
2018-Jun-01 21:30N 37°55' E 023°42'0 0.0
2018-Jun-01 20:57N 37°55' E 023°42'0 0.0
2018-Jun-01 20:30N 37°55' E 023°42'0 0.0
2018-Jun-01 20:00N 37°55' E 023°42'0 0.0
2018-Jun-01 19:30N 37°55' E 023°42'0 0.0
2018-Jun-01 19:00N 37°55' E 023°42'0 0.0
2018-Jun-01 18:30N 37°55' E 023°42'0 0.0
2018-Jun-01 18:00N 37°55' E 023°42'0 0.0
2018-Jun-01 17:30N 37°55' E 023°42'0 0.0
2018-Jun-01 17:00N 37°55' E 023°42'0 0.0
2018-Jun-01 16:30N 37°55' E 023°42'0 0.0
2018-Jun-01 16:00N 37°55' E 023°42'0 0.0
2018-Jun-01 15:30N 37°55' E 023°42'0 0.0
2018-Jun-01 15:00N 37°55' E 023°42'0 0.0
2018-Jun-01 14:30N 37°55' E 023°42'0 0.0
2018-Jun-01 13:57N 37°55' E 023°42'0 0.0
2018-Jun-01 13:30N 37°55' E 023°42'0 0.0
2018-Jun-01 13:00N 37°55' E 023°42'0 0.0
2018-Jun-01 12:30N 37°55' E 023°42'0 0.0
2018-Jun-01 12:00N 37°55' E 023°42'0 0.0
2018-Jun-01 11:30N 37°55' E 023°42'0 0.0
2018-Jun-01 11:00N 37°55' E 023°42'0 0.0
2018-Jun-01 10:30N 37°55' E 023°42'0 0.0
2018-Jun-01 10:00N 37°55' E 023°42'0 0.0
2018-Jun-01 09:30N 37°55' E 023°42'  
Track history (hours):
 
Tides and Currents Weather Stations Pressure Air Temp Water Temp Dewpoint Dewpoint Depression Visibility Wind Speed Wind Dir Waves Ship Positions

Hydra Viii

Last reported at 2018-Jun-11 09:10 UTC. Time now 2018-Jun-24 18:37 UTC.
Position N 38°01' E 022°49'.
Warning: this ship's position is 13 days out of date.

Length 14 m.

Type: Pleasure craft. MMSI: 239951600.

Date/timePositionNaut miles runAvg speedWind from/ knotsBaromVisibWave heightAir tempDewpointWater temp
2018-Jun-11 09:10N 38°01' E 022°49'2 7.2
2018-Jun-11 08:55N 37°60' E 022°51'3 7.2
2018-Jun-11 08:30N 37°59' E 022°55'6 7.5
2018-Jun-11 07:45N 37°55' E 023°00'1 2.2
2018-Jun-11 07:30N 37°55' E 023°01'3 5.0
2018-Jun-11 07:00N 37°53' E 023°03'4 7.6
2018-Jun-11 06:30N 37°51' E 023°07'4 7.6
2018-Jun-11 06:00N 37°49' E 023°11'4 0.2
2018-Jun-10 08:03N 37°45' E 023°12'1 8.2
2018-Jun-10 07:59N 37°45' E 023°13'4 7.4
2018-Jun-10 07:30N 37°47' E 023°17'3 6.6
2018-Jun-10 07:00N 37°48' E 023°21'3 6.4
2018-Jun-10 06:30N 37°49' E 023°25'3 6.8
2018-Jun-10 06:00N 37°50' E 023°29'4 7.2
2018-Jun-10 05:30N 37°52' E 023°33'3 6.4
2018-Jun-10 05:00N 37°53' E 023°37'4 7.2
2018-Jun-10 04:30N 37°54' E 023°41'1 2.2
2018-Jun-10 03:58N 37°55' E 023°42'0 0.0
2018-Jun-10 03:28N 37°55' E 023°42'0 0.0
2018-Jun-10 02:58N 37°55' E 023°42'0 0.0
2018-Jun-10 02:28N 37°55' E 023°42'0 0.0
2018-Jun-10 01:58N 37°55' E 023°42'0 0.0
2018-Jun-10 01:28N 37°55' E 023°42'0 0.0
2018-Jun-10 00:58N 37°55' E 023°42'0 0.0
2018-Jun-10 00:29N 37°55' E 023°42'0 0.0
2018-Jun-09 23:58N 37°55' E 023°42'0 0.0
2018-Jun-09 23:28N 37°55' E 023°42'0 0.0
2018-Jun-09 22:59N 37°55' E 023°42'0 0.0
2018-Jun-09 22:28N 37°55' E 023°42'0 0.0
2018-Jun-09 21:58N 37°55' E 023°42'0 0.0
2018-Jun-09 21:28N 37°55' E 023°42'0 0.0
2018-Jun-09 20:59N 37°55' E 023°42'0 0.0
2018-Jun-09 20:28N 37°55' E 023°42'0 0.0
2018-Jun-09 19:59N 37°55' E 023°42'0 0.0
2018-Jun-09 19:29N 37°55' E 023°42'0 0.0
2018-Jun-09 18:58N 37°55' E 023°42'0 0.0
2018-Jun-09 18:28N 37°55' E 023°42'0 0.0
2018-Jun-09 17:59N 37°55' E 023°42'0 0.0
2018-Jun-09 17:28N 37°55' E 023°42'0 0.0
2018-Jun-09 16:55N 37°55' E 023°42'0 0.0
2018-Jun-09 16:28N 37°55' E 023°42'0 0.0
2018-Jun-09 15:58N 37°55' E 023°42'0 0.0
2018-Jun-09 15:29N 37°55' E 023°42'0 0.0
2018-Jun-09 14:28N 37°55' E 023°42'0 0.0
2018-Jun-09 13:59N 37°55' E 023°42'0 0.0
2018-Jun-09 13:28N 37°55' E 023°42'0 0.0
2018-Jun-09 12:58N 37°55' E 023°42'0 0.0
2018-Jun-09 12:28N 37°55' E 023°42'0 0.0
2018-Jun-09 11:58N 37°55' E 023°42'0 0.0
2018-Jun-09 11:28N 37°55' E 023°42'0 0.0
2018-Jun-09 10:58N 37°55' E 023°42'0 0.0
2018-Jun-09 10:28N 37°55' E 023°42'0 0.0
2018-Jun-09 09:59N 37°55' E 023°42'0 0.0
2018-Jun-09 09:28N 37°55' E 023°42'0 0.0
2018-Jun-09 08:58N 37°55' E 023°42'0 0.0
2018-Jun-09 08:28N 37°55' E 023°42'0 0.0
2018-Jun-09 07:58N 37°55' E 023°42'0 0.0
2018-Jun-09 07:28N 37°55' E 023°42'0 0.0
2018-Jun-09 06:58N 37°55' E 023°42'0 0.0
2018-Jun-09 06:28N 37°55' E 023°42'0 0.0
2018-Jun-09 05:58N 37°55' E 023°42'0 0.0
2018-Jun-09 05:29N 37°55' E 023°42'0 0.0
2018-Jun-09 04:59N 37°55' E 023°42'0 0.0
2018-Jun-09 04:29N 37°55' E 023°42'0 0.0
2018-Jun-09 03:58N 37°55' E 023°42'0 0.0
2018-Jun-09 03:28N 37°55' E 023°42'0 0.0
2018-Jun-09 02:58N 37°55' E 023°42'0 0.0
2018-Jun-09 02:28N 37°55' E 023°42'0 0.0
2018-Jun-09 01:59N 37°55' E 023°42'0 0.0
2018-Jun-09 01:29N 37°55' E 023°42'0 0.0
2018-Jun-09 00:58N 37°55' E 023°42'0 0.0
2018-Jun-09 00:28N 37°55' E 023°42'0 0.0
2018-Jun-08 23:58N 37°55' E 023°42'0 0.0
2018-Jun-08 23:28N 37°55' E 023°42'0 0.0
2018-Jun-08 22:59N 37°55' E 023°42'0 0.0
2018-Jun-08 22:28N 37°55' E 023°42'0 0.0
2018-Jun-08 21:58N 37°55' E 023°42'0 0.0
2018-Jun-08 21:29N 37°55' E 023°42'0 0.0
2018-Jun-08 20:59N 37°55' E 023°42'0 0.0
2018-Jun-08 20:28N 37°55' E 023°42'0 0.0
2018-Jun-08 19:58N 37°55' E 023°42'0 0.0
2018-Jun-08 19:28N 37°55' E 023°42'0 0.0
2018-Jun-08 18:58N 37°55' E 023°42'0 0.0
2018-Jun-08 18:28N 37°55' E 023°42'0 0.0
2018-Jun-08 17:59N 37°55' E 023°42'0 0.0
2018-Jun-08 17:29N 37°55' E 023°42'0 0.0
2018-Jun-08 16:58N 37°55' E 023°42'0 0.0
2018-Jun-08 16:29N 37°55' E 023°42'0 0.0
2018-Jun-08 15:58N 37°55' E 023°42'0 0.0
2018-Jun-08 15:29N 37°55' E 023°42'0 0.0
2018-Jun-08 14:58N 37°55' E 023°42'0 0.0
2018-Jun-08 14:26N 37°55' E 023°42'0 0.0
2018-Jun-08 13:59N 37°55' E 023°42'1 1.9
2018-Jun-08 13:30N 37°54' E 023°41'3 6.4
2018-Jun-08 13:00N 37°52' E 023°39'3 6.3
2018-Jun-08 12:31N 37°50' E 023°36'3 5.8
2018-Jun-08 12:01N 37°47' E 023°34'1 2.1
2018-Jun-08 11:30N 37°46' E 023°33'0 0.0
2018-Jun-08 11:00N 37°46' E 023°33'0 0.0
2018-Jun-08 10:30N 37°46' E 023°33'0 0.0
2018-Jun-08 10:00N 37°46' E 023°33'0 0.0
2018-Jun-08 09:30N 37°46' E 023°33'0 0.0
2018-Jun-08 09:00N 37°46' E 023°33'2 4.4
2018-Jun-08 08:29N 37°47' E 023°30'3 5.4
2018-Jun-08 08:00N 37°47' E 023°27'2 0.1
2018-Jun-07 17:09N 37°45' E 023°26'0 0.0
2018-Jun-07 17:00N 37°45' E 023°26'0 0.0
2018-Jun-07 16:30N 37°45' E 023°26'0 0.0
2018-Jun-07 16:00N 37°45' E 023°26'0 0.0
2018-Jun-07 15:30N 37°45' E 023°26'0 0.0
2018-Jun-07 14:51N 37°45' E 023°26'0 0.0
2018-Jun-07 14:30N 37°45' E 023°26'2 4.5
2018-Jun-07 14:00N 37°43' E 023°24'6 1.4
2018-Jun-07 10:03N 37°40' E 023°18'1 5.2
2018-Jun-07 09:54N 37°39' E 023°17'5 0.3
2018-Jun-06 14:22N 37°38' E 023°11'3 5.2
2018-Jun-06 13:53N 37°38' E 023°14'3 5.6
2018-Jun-06 13:24N 37°38' E 023°17'3 4.7
2018-Jun-06 12:49N 37°40' E 023°20'1 3.8
2018-Jun-06 12:26N 37°40' E 023°22'2 4.9
2018-Jun-06 11:59N 37°41' E 023°24'  
2018-Jun-03 07:50N 37°42' E 023°26'2 5.1
2018-Jun-03 07:30N 37°44' E 023°26'1 0.1
2018-Jun-02 18:06N 37°45' E 023°25'1 3.7
2018-Jun-02 17:54N 37°45' E 023°25'3 7.5
2018-Jun-02 17:30N 37°48' E 023°27'4 7.6
2018-Jun-02 17:00N 37°50' E 023°31'3 6.9
2018-Jun-02 16:30N 37°52' E 023°35'3 6.0
2018-Jun-02 16:00N 37°53' E 023°38'2 3.0
2018-Jun-02 15:30N 37°54' E 023°40'2 4.4
2018-Jun-02 15:00N 37°55' E 023°42'0 0.0
2018-Jun-02 14:30N 37°55' E 023°42'0 0.0
2018-Jun-02 14:00N 37°55' E 023°42'0 0.0
2018-Jun-02 13:30N 37°55' E 023°42'0 0.0
2018-Jun-02 13:00N 37°55' E 023°42'0 0.0
2018-Jun-02 12:30N 37°55' E 023°42'0 0.0
2018-Jun-02 12:00N 37°55' E 023°42'0 0.0
2018-Jun-02 11:30N 37°55' E 023°42'0 0.0
2018-Jun-02 11:00N 37°55' E 023°42'0 0.0
2018-Jun-02 10:30N 37°55' E 023°42'0 0.0
2018-Jun-02 10:00N 37°55' E 023°42'0 0.0
2018-Jun-02 09:30N 37°55' E 023°42'0 0.0
2018-Jun-02 09:00N 37°55' E 023°42'0 0.0
2018-Jun-02 08:30N 37°55' E 023°42'0 0.0
2018-Jun-02 08:00N 37°55' E 023°42'0 0.0
2018-Jun-02 07:30N 37°55' E 023°42'0 0.0
2018-Jun-02 07:00N 37°55' E 023°42'0 0.0
2018-Jun-02 06:30N 37°55' E 023°42'0 0.0
2018-Jun-02 06:00N 37°55' E 023°42'0 0.0
2018-Jun-02 05:30N 37°55' E 023°42'0 0.0
2018-Jun-02 05:00N 37°55' E 023°42'0 0.0
2018-Jun-02 04:27N 37°55' E 023°42'0 0.0
2018-Jun-02 04:00N 37°55' E 023°42'0 0.0
2018-Jun-02 03:30N 37°55' E 023°42'0 0.0
2018-Jun-02 03:00N 37°55' E 023°42'0 0.0
2018-Jun-02 02:30N 37°55' E 023°42'0 0.0
2018-Jun-02 02:00N 37°55' E 023°42'0 0.0
2018-Jun-02 01:30N 37°55' E 023°42'0 0.0
2018-Jun-02 01:00N 37°55' E 023°42'0 0.0
2018-Jun-02 00:30N 37°55' E 023°42'0 0.0
2018-Jun-02 00:00N 37°55' E 023°42'0 0.0
2018-Jun-01 23:30N 37°55' E 023°42'0 0.0
2018-Jun-01 23:00N 37°55' E 023°42'0 0.0
2018-Jun-01 22:30N 37°55' E 023°42'0 0.0
2018-Jun-01 22:00N 37°55' E 023°42'0 0.0
2018-Jun-01 21:30N 37°55' E 023°42'0 0.0
2018-Jun-01 20:57N 37°55' E 023°42'0 0.0
2018-Jun-01 20:30N 37°55' E 023°42'0 0.0
2018-Jun-01 20:00N 37°55' E 023°42'0 0.0
2018-Jun-01 19:30N 37°55' E 023°42'0 0.0
2018-Jun-01 19:00N 37°55' E 023°42'0 0.0
2018-Jun-01 18:30N 37°55' E 023°42'0 0.0
2018-Jun-01 18:00N 37°55' E 023°42'0 0.0
2018-Jun-01 17:30N 37°55' E 023°42'0 0.0
2018-Jun-01 17:00N 37°55' E 023°42'0 0.0
2018-Jun-01 16:30N 37°55' E 023°42'0 0.0
2018-Jun-01 16:00N 37°55' E 023°42'0 0.0
2018-Jun-01 15:30N 37°55' E 023°42'0 0.0
2018-Jun-01 15:00N 37°55' E 023°42'0 0.0
2018-Jun-01 14:30N 37°55' E 023°42'0 0.0
2018-Jun-01 13:57N 37°55' E 023°42'0 0.0
2018-Jun-01 13:30N 37°55' E 023°42'0 0.0
2018-Jun-01 13:00N 37°55' E 023°42'0 0.0
2018-Jun-01 12:30N 37°55' E 023°42'0 0.0
2018-Jun-01 12:00N 37°55' E 023°42'0 0.0
2018-Jun-01 11:30N 37°55' E 023°42'0 0.0
2018-Jun-01 11:00N 37°55' E 023°42'0 0.0
2018-Jun-01 10:30N 37°55' E 023°42'0 0.0
2018-Jun-01 10:00N 37°55' E 023°42'0 0.0
2018-Jun-01 09:30N 37°55' E 023°42'  

Dump ship's entire track history